Season 21
 
 
 

TWL – Player Statistics
 


Seasons: 1 - 2 - 3 - 4 - 5 - 6 - 7 - 8 - 9 - 10 - 11 - 12 - 13 - 14 - 15 - 16 - 17 - 18 - 19 - 20 - 21

Leagues: All Leagues - TWLD - TWLJ - TWLB

Ships: All ships - Warbird - Javelin - Spider - Terrier - Lancaster - Shark

Player Squad G R WBK W L AVK HW AVD AVP RT LO SUB TP
Ricko Penetrate 14 14 151 151 112 11 16 8 2715 8736 1 0 3:59:23
LaSenza hit 12 12 136 136 103 11 20 9 2880 9075 0 0 3:55:00
Dak Fierce 13 13 110 110 67 8 13 5 2159 5602 1 1 3:39:49
scoop Real 15 15 123 123 112 8 15 7 2087 6064 0 4 3:38:47
Jones Real 14 14 88 88 103 6 11 7 1584 2638 0 1 3:37:29
Burnt Real 12 12 109 109 74 9 13 6 2335 5857 0 1 3:37:20
golden duck hit 11 11 103 103 97 9 17 9 2407 4721 0 0 3:32:16
Weaver Real 14 14 109 109 101 8 18 7 1982 5522 0 3 3:25:57
Skepsis Fierce 11 11 96 96 83 9 15 8 2185 4373 1 0 3:18:34
Casket Penetrate 11 11 99 99 95 9 14 9 2287 3851 0 0 3:11:05
Paky Dude hit 10 10 84 84 91 8 12 9 2164 2654 0 0 3:01:28
DEEZ NUTS Fierce 11 11 113 113 82 10 14 7 2611 5958 0 0 3:01:25
Peru Penetrate 10 10 92 92 96 9 12 10 2352 3074 0 0 3:00:09
Apok Fierce 11 11 129 129 84 12 17 8 2995 8833 1 1 2:52:53
Ease Thunder 9 9 86 86 73 10 16 8 2418 4497 0 2 2:50:58
chuckle Penetrate 9 9 71 71 79 8 11 9 2029 1979 0 0 2:42:15
Welt hit 9 9 66 66 81 7 11 9 1853 1731 1 2 2:39:37
Engineers Fierce 9 9 100 100 61 11 18 7 2827 6238 0 1 2:36:54
Iron Survivor Potenza 10 10 104 104 84 10 15 8 2666 5098 0 0 2:31:50
Tarnish Potenza 11 11 96 96 84 9 16 8 2208 4323 1 2 2:31:30
avaruus alus Real 10 10 93 93 66 9 15 7 2285 5486 0 1 2:30:58
Creature Penetrate 9 9 93 93 73 10 14 8 2605 4620 0 0 2:29:03
Unabled Thunder 8 8 76 76 76 10 13 10 2396 2788 0 0 2:25:41
megaman89 dicE 8 8 72 72 71 9 13 9 2300 2631 2 1 2:24:35
Murder LEGO 8 8 102 102 80 13 16 10 3266 6489 0 0 2:20:59
okyo Potenza 10 10 80 80 83 8 17 8 2047 3583 0 2 2:20:09
qpr Potenza 11 11 62 62 81 6 10 7 1452 1239 0 4 2:15:38
Mythril Real 9 9 65 65 69 7 14 8 1850 2461 0 0 2:13:56
Izor Quicksand 9 9 87 87 73 10 17 8 2457 5216 0 1 2:11:24
CrimsonX Thunder 8 8 79 79 66 10 18 8 2458 5045 0 1 2:06:20
Kyou Quicksand 8 8 64 64 64 8 14 8 2058 2494 0 1 1:57:06
Cape dicE 9 9 75 75 78 8 15 9 2142 2686 3 1 1:49:18
Reaver Real 6 6 61 61 33 10 13 6 2563 3443 0 0 1:44:00
vys dicE 6 6 43 43 52 7 11 9 1819 1206 1 0 1:38:07
RaCka Quicksand 6 6 62 62 53 10 16 9 2634 3170 0 0 1:37:50
Geio Fierce 7 7 55 55 41 8 11 6 2003 2415 0 0 1:34:27
dour Quicksand 6 6 39 39 51 7 11 9 1682 779 0 0 1:29:23
Keith hit 6 6 38 38 45 6 11 8 1622 1290 1 1 1:28:38
Cres Thunder 6 6 32 32 48 5 13 8 1371 1148 0 2 1:28:32
sulfur hit 7 7 30 30 42 4 11 6 1107 864 0 1 1:27:30
siaxis Quicksand 6 6 50 50 49 8 15 8 2093 2347 0 1 1:25:06
Quart Potenza 6 6 42 42 35 7 11 6 1778 1819 0 1 1:22:24
Raazi Quicksand 5 5 44 44 39 9 12 8 2205 1830 0 0 1:17:14
Eric Clapton Thunder 4 4 26 26 29 7 11 7 1683 838 0 1 1:13:38
Best dicE 6 6 59 59 56 10 15 9 2518 2522 0 0 1:10:02
Obi Thunder 5 5 24 24 31 5 8 6 1220 387 0 2 1:09:49
Spaceship Penetrate 4 4 27 27 40 7 8 10 1635 241 1 0 1:09:06
Baffling LEGO 4 4 21 21 36 5 8 9 1347 220 0 1 1:08:26
Riverside Thunder 6 6 55 55 47 9 13 8 2355 2506 2 0 1:07:16
waven dicE 4 4 35 35 32 9 12 8 2243 1346 1 1 1:06:27
Let LEGO 4 4 37 37 39 9 14 10 2376 1406 0 0 1:03:41
Flew LEGO 5 5 42 42 50 8 12 10 2162 1183 0 0 1:00:06
Opt|mus LEGO 4 4 27 27 33 7 13 8 1723 996 0 0 0:59:31
Henry Saari Spastic 6 6 25 25 54 4 8 9 1073 -43 0 0 0:55:25
Rasaq Penetrate 4 4 40 40 33 10 14 8 2545 1896 0 0 0:53:09
Pure_Luck Spastic 5 5 33 33 50 7 8 10 1713 315 1 0 0:52:32
Duclover LEGO 4 4 15 15 26 4 7 7 949 74 0 0 0:51:23
Tops hit 5 5 20 20 26 4 11 5 1026 762 0 4 0:51:19
Kthx Quicksand 4 4 28 28 35 7 11 9 1786 629 0 1 0:51:07
Morph LEGO 3 3 19 19 27 6 10 9 1621 370 0 1 0:51:00
Zagis Spastic 5 5 42 42 50 8 14 10 2115 1659 0 0 0:43:48
a2m dicE 3 3 15 15 26 5 11 9 1298 387 0 1 0:42:44
Props Fierce 2 2 17 17 16 9 9 8 2167 539 0 0 0:40:43
jaa LEGO 2 2 13 13 20 7 7 10 1665 85 0 0 0:39:59
kid kaos Quicksand 4 4 16 16 24 4 7 6 1014 121 0 1 0:38:36
delectable dicE 2 2 26 26 20 13 16 10 3343 1673 0 0 0:38:17
SwimKid Fierce 2 2 19 19 15 10 11 8 2422 797 0 0 0:36:31
Rule Real 2 2 10 10 15 5 9 8 1269 222 0 1 0:33:58
Duke- Potenza 3 3 18 18 16 6 8 5 1530 499 2 1 0:33:41
resurrected Potenza 4 4 10 10 25 3 5 6 652 -80 0 1 0:33:26
L3MU3L Spastic 3 3 12 12 30 4 7 10 1049 -54 2 0 0:32:54
Phrenitis Thunder 4 4 16 16 27 4 6 7 1034 47 0 0 0:32:53
Mean Gene Spastic 3 3 8 8 30 3 3 10 692 -193 0 0 0:32:43
paska dicE 2 2 17 17 18 9 9 9 2167 456 0 0 0:31:14
beam Thunder 2 2 21 21 17 11 15 9 2551 1255 0 0 0:30:20
L2Kill Potenza 2 2 9 9 15 5 8 8 1167 136 0 0 0:30:19
LF dicE 3 3 21 21 11 7 18 4 1697 2083 1 0 0:30:13
Kornflakes LEGO 2 2 7 7 19 4 4 10 903 -104 0 0 0:29:26
High Templar dicE 2 2 16 16 17 8 9 9 2037 414 0 0 0:29:14
Burg LEGO 2 2 10 10 17 5 7 9 1259 48 0 1 0:28:31
Raspi Thunder 1 1 9 9 10 9 9 10 2293 237 0 0 0:28:02
Biet Potenza 5 5 9 9 16 2 4 3 453 124 1 1 0:26:54
money Spastic 3 3 7 7 21 2 4 7 616 -95 0 2 0:26:50
deskTOP Penetrate 2 2 15 15 16 8 11 8 1903 517 0 0 0:26:40
byakko Thunder 2 2 18 18 15 9 14 8 2300 963 0 0 0:26:26
HotKarl4U Quicksand 2 2 4 4 10 2 3 5 507 -20 0 1 0:25:50
Magnetic Spastic 2 2 7 7 20 4 4 10 897 -119 0 0 0:24:26
spacedust Spastic 3 3 4 4 18 1 4 6 343 -55 0 1 0:24:23
BongHits Spastic 2 2 8 8 20 4 5 10 1013 -94 1 0 0:24:03
Demonic Real 2 2 8 8 7 4 5 4 1016 138 0 0 0:23:23
Weak Quicksand 1 1 1 1 6 1 1 6 250 -19 0 1 0:23:15
Harder Potenza 4 4 5 5 19 1 3 5 300 3 0 0 0:22:41
Heisman hit 2 2 3 3 4 2 2 2 356 3 0 1 0:20:54
chars Spastic 2 2 9 9 20 5 6 10 1176 -57 0 0 0:20:08
Bacon Penetrate 2 2 18 18 14 9 11 7 2309 736 0 0 0:20:06
Refer LEGO 1 1 10 10 10 10 10 10 2549 344 0 0 0:20:01
CORONER LEGO 1 1 17 17 10 17 17 10 4358 1549 0 0 0:19:34
JAMAL dicE 1 1 5 5 8 5 5 8 1269 17 0 1 0:18:24
Echo Rusher Potenza 1 1 10 10 10 10 10 10 2573 347 0 0 0:18:01
pascone dicE 1 1 6 6 10 6 6 10 1581 14 0 0 0:17:57
FST Quicksand 1 1 15 15 9 15 15 9 3841 1192 0 0 0:17:14
Quartz Thunder 1 1 7 7 8 7 7 8 1794 137 0 0 0:16:56
Dwight Thunder 2 2 3 3 11 2 2 6 387 -57 0 0 0:16:41
saetep Thunder 1 1 12 12 10 12 12 10 3143 622 0 0 0:16:40
Cross Thunder 1 1 4 4 10 4 4 10 1012 -54 0 0 0:16:37
Sulla Spastic 2 2 9 9 16 5 5 8 1182 7 0 0 0:15:44
Violence LEGO 1 1 7 7 10 7 7 10 1790 72 0 0 0:15:44
Esau LEGO 2 2 3 3 11 2 2 6 379 -41 1 2 0:14:14
rainbow seeker Thunder 1 1 7 7 8 7 7 8 1833 140 0 0 0:13:40
Guero Penetrate 1 1 7 7 10 7 7 10 1792 72 0 0 0:13:31
Confluence Real 1 1 11 11 2 11 11 2 2787 865 0 0 0:13:25
Oops Spastic 1 1 4 4 10 4 4 10 1032 -55 0 0 0:13:23
Stung Spastic 1 1 4 4 10 4 4 10 1024 -55 0 0 0:11:45
Devilish hit 1 1 6 6 3 6 6 3 1511 203 0 0 0:11:16
Abducted hit 2 2 0 0 7 0 0 4 0 0 0 2 0:11:03
wicKet666 Quicksand 2 2 4 4 11 2 2 6 519 -40 0 0 0:10:51
death row Fierce 1 1 11 11 2 11 11 2 2798 868 0 0 0:10:26
Celly Spastic 1 1 2 2 10 2 2 10 556 -65 0 0 0:10:18
Common Spastic 2 2 10 10 18 5 5 9 1275 -11 0 0 0:09:49
AntimatteR hit 1 1 5 5 7 5 5 7 1304 41 0 0 0:09:30
Nessy hit 1 1 0 0 4 0 0 4 0 0 0 0 0:09:17
Aide Spastic 1 1 3 3 5 3 3 5 777 3 0 0 0:08:30
humid Spastic 1 1 12 12 10 12 12 10 3130 619 0 0 0:08:22
Paradise hit 1 1 2 2 6 2 2 6 502 -22 0 0 0:08:16
TheWadoRooster Spastic 1 1 1 1 4 1 1 4 250 -10 0 1 0:07:38
Public Assassin Spastic 1 1 0 0 4 0 0 4 0 0 0 1 0:07:07
Ward Quicksand 1 1 3 3 6 3 3 6 764 -10 0 1 0:06:50
cloth hit 1 1 4 4 10 4 4 10 1015 -54 1 0 0:06:30
ReNdErED LEGO 1 1 2 2 6 2 2 6 512 -23 0 0 0:05:44
Zizzo LEGO 1 1 1 1 2 1 1 2 256 -1 0 0 0:04:26
Geisha Real 1 1 0 0 3 0 0 3 0 0 0 1 0:03:38
Ravage Quicksand 1 1 0 0 2 0 0 2 0 0 0 0 0:02:48
Spikey Real 1 1 0 0 1 0 0 1 0 0 0 0 0:02:10
Mess dicE 1 1 3 3 1 3 3 1 775 59 0 0 0:01:56
struck Thunder 1 1 1 1 0 1 1 0 256 8 0 0 0:01:56
cripple dicE 1 1 2 2 2 2 2 2 512 13 0 0 0:01:49
CLAUSHOUSE LEGO 1 1 6 6 10 6 6 10 1548 13 0 0 0:00:25
ZypheN Thunder 1 1 5 5 10 5 5 10 1316 -29 0 0 0:00:14

 
 

Central: Pacific: Eastern:
London: New Zealand: Australia:
Helsinki: Brazil: Netherlands: